Dr.Michael Heilos
Wetterdaten: aktuell Donnerstag, 01.06.2023 12:00
Datum Zeit Temp. A. Feuchte A. Luftdruck Regen Wind Richtung Richtung Sonnenschein Solar Windchill Windben
31.05.2023 12:00 16,9 C 46 % 1025,9 hPa 0,0 l/m 2,6 km/h (1 Bft) O-NO 68 12,00 min 471 W/m 16,9 C 7,5 km/h (2 Bft)
30.05.2023 12:00 13,0 C 53 % 1027,4 hPa 0,0 l/m 3,2 km/h (1 Bft) NO 45 10,33 min 383 W/m 13,0 C 9,4 km/h (2 Bft)
29.05.2023 12:00 15,3 C 47 % 1024,5 hPa 0,0 l/m 4,7 km/h (1 Bft) N-NO 22 11,83 min 477 W/m 15,0 C 12,5 km/h (3 Bft)
28.05.2023 12:00 17,1 C 43 % 1021,9 hPa 0,0 l/m 3,9 km/h (1 Bft) SO 135 11,83 min 484 W/m 17,1 C 10,8 km/h (2 Bft)
27.05.2023 12:00 14,1 C 47 % 1027,7 hPa 0,0 l/m 3,3 km/h (1 Bft) SO 135 11,83 min 479 W/m 14,0 C 8,9 km/h (2 Bft)
26.05.2023 12:00 12,3 C 51 % 1030,5 hPa 0,0 l/m 3,9 km/h (1 Bft) N 360 11,67 min 438 W/m 12,1 C 10,6 km/h (2 Bft)
25.05.2023 12:00 10,2 C 59 % 1028,5 hPa 0,0 l/m 2,3 km/h (1 Bft) N-NW 338 11,17 min 206 W/m 10,2 C 6,8 km/h (2 Bft)
24.05.2023 12:00 9,0 C 60 % 1025,2 hPa 0,2 l/m 2,1 km/h (1 Bft) N 360 9,33 min 189 W/m 9,0 C 6,3 km/h (2 Bft)
23.05.2023 12:00 13,1 C 59 % 1020,0 hPa 0,6 l/m 5,8 km/h (2 Bft) N-NW 338 4,83 min 145 W/m 12,7 C 16,9 km/h (3 Bft)
22.05.2023 12:00 19,3 C 55 % 1015,3 hPa 2,6 l/m 1,8 km/h (1 Bft) SO 135 9,50 min 344 W/m 19,3 C 6,3 km/h (2 Bft)
21.05.2023 12:00 17,3 C 54 % 1017,8 hPa 0,4 l/m 2,4 km/h (1 Bft) NO 45 10,67 min 317 W/m 17,3 C 7,3 km/h (2 Bft)
20.05.2023 12:00 13,3 C 55 % 1023,6 hPa 0,0 l/m 4,2 km/h (1 Bft) O-SO 112 7,83 min 197 W/m 13,2 C 12,0 km/h (2 Bft)
19.05.2023 12:00 12,9 C 46 % 1026,8 hPa 0,0 l/m 4,0 km/h (1 Bft) SO 135 11,50 min 439 W/m 12,7 C 10,8 km/h (2 Bft)
18.05.2023 12:00 10,0 C 49 % 1029,2 hPa 0,0 l/m 3,1 km/h (1 Bft) NO 45 11,83 min 449 W/m 9,9 C 9,3 km/h (2 Bft)
17.05.2023 12:00 9,9 C 49 % 1027,0 hPa 0,0 l/m 4,7 km/h (1 Bft) N 360 10,50 min 381 W/m 9,6 C 13,1 km/h (3 Bft)
16.05.2023 12:00 11,4 C 50 % 1020,0 hPa 1,0 l/m 7,0 km/h (2 Bft) N 360 10,67 min 374 W/m 10,6 C 18,1 km/h (3 Bft)
15.05.2023 12:00 13,7 C 55 % 1014,5 hPa 0,0 l/m 3,4 km/h (1 Bft) SO 135 11,17 min 376 W/m 13,6 C 10,1 km/h (2 Bft)
14.05.2023 12:00 13,9 C 53 % 1018,8 hPa 1,0 l/m 2,8 km/h (1 Bft) SO 135 9,17 min 327 W/m 13,9 C 7,5 km/h (2 Bft)
13.05.2023 12:00 15,5 C 46 % 1021,1 hPa 0,0 l/m 2,9 km/h (1 Bft) NO 45 11,17 min 448 W/m 15,4 C 8,0 km/h (2 Bft)
12.05.2023 12:00 15,6 C 53 % 1018,7 hPa 0,2 l/m 3,0 km/h (1 Bft) O-SO 112 10,50 min 323 W/m 15,5 C 9,1 km/h (2 Bft)
11.05.2023 12:00 13,2 C 63 % 1015,9 hPa 7,2 l/m 1,6 km/h (1 Bft) N 360 5,67 min 130 W/m 13,2 C 4,6 km/h (1 Bft)
10.05.2023 12:00 13,9 C 60 % 1011,9 hPa 10,8 l/m 2,2 km/h (1 Bft) W-SW 248 6,50 min 222 W/m 13,9 C 7,4 km/h (2 Bft)
09.05.2023 12:00 17,4 C 53 % 1015,3 hPa 0,4 l/m 3,4 km/h (1 Bft) O-SO 112 10,00 min 393 W/m 17,4 C 13,1 km/h (3 Bft)
08.05.2023 12:00 15,4 C 55 % 1023,0 hPa 0,0 l/m 4,4 km/h (1 Bft) O-SO 112 11,50 min 443 W/m 15,3 C 13,0 km/h (3 Bft)
07.05.2023 12:00 14,3 C 55 % 1020,1 hPa 0,0 l/m 6,8 km/h (2 Bft) O-SO 112 9,17 min 329 W/m 13,7 C 17,6 km/h (3 Bft)
06.05.2023 12:00 15,0 C 55 % 1018,9 hPa 1,8 l/m 1,8 km/h (1 Bft) O-SO 112 11,00 min 398 W/m 15,0 C 6,0 km/h (2 Bft)
05.05.2023 12:00 15,1 C 53 % 1017,7 hPa 11,6 l/m 2,9 km/h (1 Bft) O-SO 112 6,67 min 249 W/m 15,0 C 8,7 km/h (2 Bft)
04.05.2023 12:00 13,6 C 45 % 1022,6 hPa 0,0 l/m 3,5 km/h (1 Bft) O-SO 112 10,83 min 400 W/m 13,5 C 10,0 km/h (2 Bft)
03.05.2023 12:00 8,5 C 49 % 1029,6 hPa 0,0 l/m 3,1 km/h (1 Bft) SO 135 11,17 min 480 W/m 8,5 C 8,6 km/h (2 Bft)
02.05.2023 12:00 9,5 C 55 % 1024,6 hPa 2,4 l/m 3,9 km/h (1 Bft) N 360 3,83 min 128 W/m 9,4 C 11,4 km/h (2 Bft)
01.05.2023 12:00 12,9 C 45 % 1017,5 hPa 0,0 l/m 2,4 km/h (1 Bft) SO 135 10,50 min 300 W/m 12,9 C 7,2 km/h (2 Bft)
30.04.2023 12:00 10,1 C 50 % 1024,3 hPa 0,0 l/m 2,8 km/h (1 Bft) NO 45 10,83 min 460 W/m 10,0 C 8,0 km/h (2 Bft)
29.04.2023 12:00 11,1 C 60 % 1018,4 hPa 3,6 l/m 3,8 km/h (1 Bft) W-SW 248 4,00 min 121 W/m 11,1 C 11,0 km/h (2 Bft)
28.04.2023 12:00 11,9 C 53 % 1013,9 hPa 0,4 l/m 5,0 km/h (1 Bft) SO 135 5,33 min 167 W/m 11,6 C 14,2 km/h (3 Bft)
27.04.2023 12:00 7,2 C 44 % 1021,9 hPa 0,0 l/m 2,4 km/h (1 Bft) O-SO 112 10,67 min 465 W/m 7,2 C 7,0 km/h (2 Bft)
26.04.2023 12:00 5,0 C 53 % 1020,5 hPa 0,0 l/m 3,0 km/h (1 Bft) SW 225 9,50 min 236 W/m 5,0 C 8,4 km/h (2 Bft)
25.04.2023 12:00 6,5 C 55 % 1014,1 hPa 3,4 l/m 5,6 km/h (1 Bft) W-SW 248 8,50 min 285 W/m 5,9 C 15,5 km/h (3 Bft)
24.04.2023 12:00 9,2 C 56 % 1006,1 hPa 4,4 l/m 6,4 km/h (2 Bft) SW 225 4,33 min 118 W/m 8,3 C 17,6 km/h (3 Bft)
23.04.2023 12:00 14,1 C 52 % 1007,5 hPa 2,8 l/m 3,7 km/h (1 Bft) O-SO 112 9,00 min 334 W/m 14,1 C 11,4 km/h (2 Bft)
22.04.2023 12:00 16,1 C 46 % 1009,7 hPa 0,4 l/m 3,7 km/h (1 Bft) O-SO 112 8,50 min 348 W/m 15,9 C 11,9 km/h (2 Bft)
21.04.2023 12:00 14,1 C 47 % 1014,8 hPa 0,0 l/m 6,5 km/h (2 Bft) O 90 10,33 min 421 W/m 13,4 C 17,2 km/h (3 Bft)
20.04.2023 12:00 7,5 C 54 % 1020,2 hPa 1,0 l/m 6,1 km/h (2 Bft) NO 45 6,00 min 189 W/m 6,9 C 16,6 km/h (3 Bft)
19.04.2023 12:00 10,1 C 40 % 1027,0 hPa 0,0 l/m 7,4 km/h (2 Bft) NO 45 10,50 min 423 W/m 9,0 C 18,8 km/h (3 Bft)
18.04.2023 12:00 9,0 C 55 % 1028,6 hPa 0,0 l/m 6,2 km/h (2 Bft) NO 45 8,17 min 260 W/m 8,3 C 15,3 km/h (3 Bft)
17.04.2023 12:00 10,7 C 52 % 1026,7 hPa 0,0 l/m 3,9 km/h (1 Bft) NO 45 9,00 min 329 W/m 10,4 C 10,2 km/h (2 Bft)
16.04.2023 12:00 8,9 C 64 % 1022,8 hPa 0,2 l/m 3,7 km/h (1 Bft) N-NW 338 3,50 min 114 W/m 8,8 C 10,2 km/h (2 Bft)
15.04.2023 12:00 6,1 C 62 % 1013,3 hPa 6,0 l/m 2,2 km/h (1 Bft) N 360 0,00 min 45 W/m 6,1 C 7,2 km/h (2 Bft)
14.04.2023 12:00 8,8 C 47 % 1010,9 hPa 0,0 l/m 2,5 km/h (1 Bft) O-SO 112 10,33 min 397 W/m 8,8 C 7,4 km/h (2 Bft)
13.04.2023 12:00 8,3 C 52 % 1004,8 hPa 0,0 l/m 5,3 km/h (1 Bft) SW 225 8,67 min 292 W/m 7,8 C 14,3 km/h (3 Bft)
12.04.2023 12:00 8,2 C 56 % 1003,7 hPa 7,6 l/m 4,8 km/h (1 Bft) O-SO 112 5,17 min 137 W/m 7,9 C 14,4 km/h (3 Bft)
11.04.2023 12:00 9,2 C 49 % 1012,8 hPa 2,6 l/m 8,3 km/h (2 Bft) SW 225 8,17 min 333 W/m 7,5 C 19,2 km/h (3 Bft)
10.04.2023 12:00 10,7 C 43 % 1020,3 hPa 1,2 l/m 5,1 km/h (1 Bft) O-SO 112 10,00 min 360 W/m 10,4 C 15,4 km/h (3 Bft)
09.04.2023 12:00 7,7 C 52 % 1027,4 hPa 0,0 l/m 3,8 km/h (1 Bft) SO 135 10,67 min 389 W/m 7,6 C 10,4 km/h (2 Bft)
08.04.2023 12:00 5,7 C 58 % 1026,1 hPa 0,2 l/m 1,5 km/h (1 Bft) O 90 3,67 min 113 W/m 5,7 C 4,6 km/h (1 Bft)
07.04.2023 12:00 8,0 C 56 % 1018,8 hPa 4,0 l/m 4,1 km/h (1 Bft) O-SO 112 8,00 min 237 W/m 8,0 C 12,0 km/h (2 Bft)
06.04.2023 12:00 7,8 C 39 % 1019,2 hPa 0,0 l/m 3,8 km/h (1 Bft) O-SO 112 9,67 min 379 W/m 7,7 C 11,5 km/h (2 Bft)
05.04.2023 12:00 4,2 C 45 % 1024,5 hPa 0,0 l/m 2,9 km/h (1 Bft) O-SO 112 9,67 min 416 W/m 4,2 C 8,2 km/h (2 Bft)
04.04.2023 12:00 2,7 C 47 % 1030,1 hPa 0,0 l/m 2,5 km/h (1 Bft) O-SO 112 10,33 min 427 W/m 2,7 C 7,0 km/h (2 Bft)
03.04.2023 12:00 3,2 C 49 % 1032,8 hPa 0,0 l/m 5,5 km/h (1 Bft) NO 45 10,00 min 409 W/m 2,3 C 14,1 km/h (3 Bft)
02.04.2023 12:00 4,7 C 55 % 1021,4 hPa 2,2 l/m 7,4 km/h (2 Bft) NO 45 6,83 min 179 W/m 3,3 C 19,2 km/h (3 Bft)
01.04.2023 12:00 9,9 C 58 % 999,7 hPa 10,0 l/m 3,6 km/h (1 Bft) S-SW 202 4,17 min 111 W/m 9,7 C 11,6 km/h (2 Bft)
31.03.2023 12:00 10,6 C 57 % 1000,3 hPa 10,4 l/m 3,9 km/h (1 Bft) S-SW 202 3,00 min 117 W/m 10,4 C 13,1 km/h (3 Bft)
30.03.2023 12:00 13,6 C 52 % 1008,6 hPa 2,0 l/m 7,8 km/h (2 Bft) SW 225 5,33 min 216 W/m 12,3 C 19,7 km/h (3 Bft)
29.03.2023 12:00 9,0 C 56 % 1017,0 hPa 0,0 l/m 2,8 km/h (1 Bft) SW 225 4,17 min 125 W/m 8,9 C 9,2 km/h (2 Bft)
28.03.2023 12:00 4,4 C 51 % 1026,2 hPa 0,0 l/m 4,8 km/h (1 Bft) W-SW 248 9,17 min 288 W/m 3,8 C 12,5 km/h (3 Bft)
27.03.2023 12:00 2,6 C 56 % 1019,1 hPa 1,6 l/m 5,8 km/h (2 Bft) W-SW 248 7,67 min 256 W/m 1,7 C 15,4 km/h (3 Bft)
26.03.2023 12:00 7,1 C 58 % 1006,3 hPa 6,4 l/m 4,8 km/h (1 Bft) SW 225 1,50 min 91 W/m 6,3 C 11,7 km/h (2 Bft)
25.03.2023 12:00 8,8 C 56 % 1005,5 hPa 7,8 l/m 11,1 km/h (2 Bft) SW 225 6,17 min 175 W/m 5,9 C 25,4 km/h (4 Bft)
24.03.2023 12:00 12,0 C 54 % 1004,0 hPa 4,0 l/m 8,3 km/h (2 Bft) SW 225 7,00 min 241 W/m 10,6 C 21,6 km/h (4 Bft)
23.03.2023 12:00 12,0 C 55 % 1006,6 hPa 2,8 l/m 5,9 km/h (2 Bft) S-SW 202 3,67 min 127 W/m 11,5 C 17,0 km/h (3 Bft)
22.03.2023 12:00 12,4 C 51 % 1010,2 hPa 0,0 l/m 5,9 km/h (2 Bft) SW 225 6,83 min 226 W/m 11,9 C 17,1 km/h (3 Bft)
21.03.2023 12:00 10,0 C 57 % 1016,3 hPa 2,2 l/m 2,5 km/h (1 Bft) S-SW 202 1,00 min 94 W/m 10,0 C 8,7 km/h (2 Bft)
20.03.2023 12:00 8,7 C 57 % 1020,4 hPa 0,2 l/m 5,1 km/h (1 Bft) SW 225 5,50 min 161 W/m 8,2 C 12,8 km/h (3 Bft)
19.03.2023 12:00 11,2 C 56 % 1015,9 hPa 0,6 l/m 2,1 km/h (1 Bft) SO 135 4,33 min 145 W/m 11,2 C 5,7 km/h (1 Bft)
18.03.2023 12:00 12,6 C 53 % 1012,8 hPa 6,0 l/m 2,4 km/h (1 Bft) SW 225 8,67 min 235 W/m 12,5 C 7,7 km/h (2 Bft)
17.03.2023 12:00 10,6 C 46 % 1011,3 hPa 0,0 l/m 4,2 km/h (1 Bft) O-SO 112 7,83 min 242 W/m 10,4 C 12,6 km/h (3 Bft)
16.03.2023 12:00 5,0 C 48 % 1019,1 hPa 0,0 l/m 5,0 km/h (1 Bft) O-SO 112 7,67 min 233 W/m 4,7 C 15,7 km/h (3 Bft)
15.03.2023 12:00 2,7 C 54 % 1018,3 hPa 2,4 l/m 4,4 km/h (1 Bft) W-SW 248 5,67 min 247 W/m 2,5 C 12,2 km/h (3 Bft)
14.03.2023 12:00 7,5 C 55 % 998,2 hPa 7,8 l/m 6,9 km/h (2 Bft) SW 225 6,50 min 175 W/m 6,5 C 22,9 km/h (4 Bft)
13.03.2023 12:00 12,8 C 55 % 999,6 hPa 0,8 l/m 7,7 km/h (2 Bft) SW 225 5,50 min 239 W/m 11,6 C 24,4 km/h (4 Bft)
12.03.2023 12:00 3,9 C 56 % 1011,4 hPa 0,8 l/m 4,7 km/h (1 Bft) SW 225 0,17 min 77 W/m 3,4 C 12,5 km/h (3 Bft)
11.03.2023 12:00 0,9 C 57 % 1010,8 hPa 2,2 l/m 4,3 km/h (1 Bft) W-SW 248 6,17 min 267 W/m 0,7 C 12,4 km/h (3 Bft)
10.03.2023 12:00 7,5 C 62 % 990,6 hPa 12,6 l/m 6,0 km/h (2 Bft) SW 225 3,67 min 142 W/m 6,3 C 16,0 km/h (3 Bft)
09.03.2023 12:00 2,2 C 67 % 996,5 hPa 10,0 l/m 2,1 km/h (1 Bft) W-SW 248 0,00 min 78 W/m 2,2 C 6,1 km/h (2 Bft)
08.03.2023 12:00 0,1 C 65 % 997,7 hPa 5,6 l/m 2,4 km/h (1 Bft) O-SO 112 2,67 min 83 W/m 0,1 C 7,8 km/h (2 Bft)
07.03.2023 12:00 1,6 C 63 % 999,1 hPa 8,0 l/m 6,1 km/h (2 Bft) SW 225 0,00 min 47 W/m 0,4 C 15,1 km/h (3 Bft)
06.03.2023 12:00 2,2 C 59 % 1006,4 hPa 1,2 l/m 4,4 km/h (1 Bft) SW 225 1,83 min 101 W/m 1,9 C 11,3 km/h (2 Bft)
05.03.2023 12:00 3,0 C 59 % 1016,7 hPa 0,6 l/m 4,7 km/h (1 Bft) W-SW 248 3,17 min 114 W/m 2,8 C 12,5 km/h (3 Bft)
04.03.2023 12:00 3,9 C 57 % 1024,2 hPa 0,0 l/m 5,6 km/h (1 Bft) W-SW 248 0,83 min 78 W/m 3,5 C 14,8 km/h (3 Bft)
03.03.2023 12:00 0,8 C 60 % 1026,6 hPa 0,0 l/m 2,1 km/h (1 Bft) SW 225 4,67 min 133 W/m 0,8 C 6,6 km/h (2 Bft)
02.03.2023 12:00 2,1 C 52 % 1025,5 hPa 0,0 l/m 3,2 km/h (1 Bft) NO 45 8,17 min 308 W/m 1,8 C 8,4 km/h (2 Bft)
01.03.2023 12:00 0,0 C 52 % 1029,8 hPa 0,0 l/m 2,9 km/h (1 Bft) O-NO 68 8,00 min 303 W/m -0,3 C 7,5 km/h (2 Bft)
28.02.2023 12:00 0,8 C 51 % 1032,6 hPa 0,0 l/m 3,4 km/h (1 Bft) O-SO 112 7,00 min 277 W/m 0,6 C 9,0 km/h (2 Bft)
27.02.2023 12:00 0,3 C 55 % 1031,1 hPa 0,0 l/m 2,7 km/h (1 Bft) NO 45 6,33 min 263 W/m 0,2 C 7,8 km/h (2 Bft)
26.02.2023 12:00 0,2 C 53 % 1024,2 hPa 0,0 l/m 4,3 km/h (1 Bft) NO 45 6,33 min 239 W/m -0,4 C 10,6 km/h (2 Bft)
25.02.2023 12:00 2,2 C 57 % 1010,0 hPa 1,0 l/m 7,4 km/h (2 Bft) N 360 4,00 min 155 W/m 0,3 C 17,7 km/h (3 Bft)
24.02.2023 12:00 3,1 C 64 % 1008,7 hPa 7,0 l/m 7,7 km/h (2 Bft) W-SW 248 0,00 min 49 W/m 1,1 C 18,0 km/h (3 Bft)
23.02.2023 12:00 7,3 C 64 % 1015,2 hPa 6,8 l/m 2,1 km/h (1 Bft) W-SW 248 0,00 min 37 W/m 7,3 C 6,3 km/h (2 Bft)
22.02.2023 12:00 9,3 C 60 % 1014,7 hPa 0,2 l/m 3,2 km/h (1 Bft) O-SO 112 7,00 min 200 W/m 9,2 C 9,7 km/h (2 Bft)
21.02.2023 12:00 8,0 C 62 % 1020,3 hPa 0,0 l/m 6,1 km/h (2 Bft) SW 225 0,00 min 50 W/m 6,8 C 13,6 km/h (3 Bft)
20.02.2023 12:00 7,0 C 59 % 1023,2 hPa 0,0 l/m 11,2 km/h (2 Bft) W-SW 248 2,83 min 129 W/m 3,7 C 24,2 km/h (4 Bft)
19.02.2023 12:00 7,3 C 63 % 1022,4 hPa 8,4 l/m 5,9 km/h (2 Bft) W-SW 248 1,83 min 98 W/m 6,5 C 14,5 km/h (3 Bft)
18.02.2023 12:00 9,4 C 60 % 1019,7 hPa 6,6 l/m 11,6 km/h (2 Bft) SW 225 0,00 min 40 W/m 6,3 C 24,9 km/h (4 Bft)
17.02.2023 12:00 10,8 C 57 % 1020,1 hPa 5,4 l/m 11,2 km/h (2 Bft) SW 225 1,33 min 77 W/m 8,1 C 26,0 km/h (4 Bft)
16.02.2023 12:00 6,2 C 56 % 1025,1 hPa 0,0 l/m 3,9 km/h (1 Bft) SO 135 3,33 min 140 W/m 6,2 C 10,3 km/h (2 Bft)
15.02.2023 12:00 4,2 C 57 % 1028,7 hPa 0,0 l/m 5,3 km/h (1 Bft) SO 135 5,83 min 211 W/m 3,8 C 13,3 km/h (3 Bft)
14.02.2023 12:00 6,4 C 57 % 1035,2 hPa 0,0 l/m 3,4 km/h (1 Bft) O-SO 112 5,67 min 216 W/m 6,3 C 9,4 km/h (2 Bft)
13.02.2023 12:00 7,1 C 63 % 1039,0 hPa 0,0 l/m 2,1 km/h (1 Bft) O-SO 112 4,67 min 199 W/m 7,1 C 6,7 km/h (2 Bft)
12.02.2023 12:00 7,1 C 66 % 1040,4 hPa 0,8 l/m 1,8 km/h (1 Bft) W-SW 248 0,50 min 66 W/m 7,1 C 5,6 km/h (1 Bft)
11.02.2023 12:00 6,2 C 60 % 1035,8 hPa 0,2 l/m 8,1 km/h (2 Bft) SW 225 0,00 min 36 W/m 4,7 C 18,7 km/h (3 Bft)
10.02.2023 12:00 3,7 C 58 % 1037,7 hPa 0,0 l/m 4,2 km/h (1 Bft) SW 225 4,67 min 178 W/m 3,4 C 10,8 km/h (2 Bft)
09.02.2023 12:00 0,0 C 51 % 1034,8 hPa 0,0 l/m 1,9 km/h (1 Bft) SO 135 4,83 min 164 W/m 0,0 C 6,0 km/h (2 Bft)
08.02.2023 12:00 0,3 C 47 % 1039,6 hPa 0,0 l/m 2,3 km/h (1 Bft) O-SO 112 4,33 min 178 W/m 0,3 C 7,0 km/h (2 Bft)
07.02.2023 12:00 -0,6 C 59 % 1042,4 hPa 0,0 l/m 1,7 km/h (1 Bft) O-SO 112 5,33 min 200 W/m -0,6 C 6,1 km/h (2 Bft)
06.02.2023 12:00 1,1 C 68 % 1042,5 hPa 0,0 l/m 1,8 km/h (1 Bft) W-SW 248 3,50 min 120 W/m 1,1 C 7,3 km/h (2 Bft)
05.02.2023 12:00 3,4 C 68 % 1038,2 hPa 5,8 l/m 3,2 km/h (1 Bft) O-SO 112 0,00 min 43 W/m 3,4 C 9,5 km/h (2 Bft)
04.02.2023 12:00 4,2 C 64 % 1036,9 hPa 0,2 l/m 2,5 km/h (1 Bft) O-SO 112 2,67 min 117 W/m 4,1 C 7,6 km/h (2 Bft)
03.02.2023 12:00 7,3 C 65 % 1025,0 hPa 6,0 l/m 12,4 km/h (3 Bft) SW 225 0,00 min 20 W/m 3,2 C 28,0 km/h (4 Bft)
02.02.2023 12:00 4,4 C 68 % 1023,4 hPa 18,6 l/m 4,5 km/h (1 Bft) W-SW 248 0,00 min 31 W/m 3,7 C 12,3 km/h (3 Bft)
01.02.2023 12:00 5,0 C 64 % 1018,1 hPa 4,0 l/m 13,1 km/h (3 Bft) SW 225 0,00 min 32 W/m 0,3 C 28,4 km/h (4 Bft)
31.01.2023 12:00 4,7 C 66 % 1021,9 hPa 1,8 l/m 11,6 km/h (2 Bft) SW 225 0,00 min 45 W/m 0,8 C 24,5 km/h (4 Bft)
30.01.2023 12:00 4,4 C 66 % 1017,8 hPa 6,6 l/m 11,8 km/h (2 Bft) W-SW 248 0,50 min 66 W/m 0,3 C 27,2 km/h (4 Bft)
29.01.2023 12:00 -1,1 C 66 % 1028,2 hPa 0,0 l/m 2,5 km/h (1 Bft) SW 225 0,00 min 55 W/m -1,1 C 7,6 km/h (2 Bft)
28.01.2023 12:00 -0,6 C 63 % 1031,4 hPa 0,0 l/m 1,3 km/h (1 Bft) N-NO 22 0,83 min 82 W/m -0,5 C 4,7 km/h (1 Bft)
27.01.2023 12:00 1,7 C 70 % 1027,4 hPa 2,2 l/m 2,0 km/h (1 Bft) NO 45 0,00 min 48 W/m 1,6 C 7,2 km/h (2 Bft)
26.01.2023 12:00 -1,1 C 68 % 1025,5 hPa 0,0 l/m 1,0 km/h (0 Bft) W-SW 248 0,00 min 30 W/m -1,1 C 4,4 km/h (1 Bft)
25.01.2023 12:00 -1,0 C 66 % 1034,1 hPa 0,0 l/m 2,0 km/h (1 Bft) W-SW 248 0,00 min 33 W/m -1,0 C 6,3 km/h (2 Bft)
24.01.2023 12:00 1,2 C 61 % 1040,3 hPa 0,0 l/m 4,6 km/h (1 Bft) O-SO 112 0,00 min 55 W/m 1,1 C 13,5 km/h (3 Bft)
23.01.2023 12:00 1,3 C 64 % 1038,3 hPa 1,8 l/m 2,4 km/h (1 Bft) NO 45 0,00 min 61 W/m 1,3 C 7,1 km/h (2 Bft)
22.01.2023 12:00 0,2 C 69 % 1032,7 hPa 1,8 l/m 1,9 km/h (1 Bft) N 360 0,00 min 20 W/m 0,2 C 5,6 km/h (1 Bft)
21.01.2023 12:00 -2,2 C 63 % 1031,4 hPa 0,2 l/m 3,1 km/h (1 Bft) N 360 0,00 min 61 W/m -2,2 C 8,3 km/h (2 Bft)
20.01.2023 12:00 -0,6 C 64 % 1018,0 hPa 0,6 l/m 1,0 km/h (0 Bft) O-SO 112 0,83 min 81 W/m -0,6 C 4,1 km/h (1 Bft)
19.01.2023 12:00 0,4 C 65 % 1006,6 hPa 3,2 l/m 4,8 km/h (1 Bft) SW 225 0,33 min 37 W/m -0,1 C 13,0 km/h (3 Bft)
18.01.2023 12:00 -2,4 C 63 % 998,1 hPa 0,2 l/m 1,6 km/h (1 Bft) S 180 0,83 min 83 W/m -2,4 C 6,3 km/h (2 Bft)
17.01.2023 12:00 0,6 C 64 % 988,4 hPa 7,4 l/m 5,5 km/h (1 Bft) SW 225 0,50 min 71 W/m -0,7 C 13,7 km/h (3 Bft)
16.01.2023 12:00 4,2 C 60 % 988,6 hPa 0,8 l/m 5,8 km/h (2 Bft) SO 135 1,33 min 83 W/m 3,4 C 17,8 km/h (3 Bft)
15.01.2023 12:00 6,2 C 56 % 1001,9 hPa 6,2 l/m 10,0 km/h (2 Bft) SW 225 0,17 min 69 W/m 3,5 C 24,7 km/h (4 Bft)
14.01.2023 12:00 8,0 C 59 % 1008,7 hPa 5,4 l/m 7,7 km/h (2 Bft) SW 225 0,00 min 25 W/m 6,7 C 21,8 km/h (4 Bft)
13.01.2023 12:00 8,1 C 57 % 1008,9 hPa 3,6 l/m 11,7 km/h (2 Bft) SW 225 0,00 min 62 W/m 4,6 C 26,5 km/h (4 Bft)
12.01.2023 12:00 9,0 C 59 % 1009,3 hPa 9,6 l/m 9,1 km/h (2 Bft) SW 225 0,00 min 37 W/m 7,1 C 24,2 km/h (4 Bft)
11.01.2023 12:00 8,9 C 58 % 1012,4 hPa 5,2 l/m 6,6 km/h (2 Bft) SW 225 0,00 min 43 W/m 8,3 C 18,7 km/h (3 Bft)
10.01.2023 12:00 6,1 C 59 % 1017,2 hPa 1,6 l/m 6,4 km/h (2 Bft) SW 225 0,00 min 75 W/m 5,4 C 17,2 km/h (3 Bft)
09.01.2023 12:00 6,7 C 59 % 1001,7 hPa 7,2 l/m 5,9 km/h (2 Bft) SW 225 1,50 min 107 W/m 6,0 C 17,6 km/h (3 Bft)
08.01.2023 12:00 9,2 C 58 % 1004,2 hPa 0,8 l/m 3,6 km/h (1 Bft) SO 135 0,17 min 69 W/m 9,2 C 12,6 km/h (3 Bft)
07.01.2023 12:00 9,6 C 57 % 1014,7 hPa 0,4 l/m 3,2 km/h (1 Bft) SO 135 0,00 min 56 W/m 9,6 C 11,4 km/h (2 Bft)
06.01.2023 12:00 9,8 C 59 % 1019,6 hPa 1,2 l/m 5,4 km/h (1 Bft) SW 225 0,00 min 47 W/m 9,1 C 14,7 km/h (3 Bft)
05.01.2023 12:00 9,4 C 58 % 1019,6 hPa 3,6 l/m 9,2 km/h (2 Bft) SW 225 0,00 min 45 W/m 7,0 C 20,8 km/h (4 Bft)
04.01.2023 12:00 9,9 C 58 % 1017,9 hPa 7,0 l/m 11,5 km/h (2 Bft) SW 225 0,00 min 35 W/m 6,9 C 28,4 km/h (4 Bft)
03.01.2023 12:00 6,6 C 58 % 1028,5 hPa 0,0 l/m 3,4 km/h (1 Bft) SW 225 0,00 min 54 W/m 6,5 C 10,5 km/h (2 Bft)
02.01.2023 12:00 11,5 C 55 % 1018,1 hPa 2,4 l/m 6,4 km/h (2 Bft) SW 225 0,00 min 32 W/m 10,9 C 17,0 km/h (3 Bft)
01.01.2023 12:00 14,0 C 49 % 1016,0 hPa 1,6 l/m 6,3 km/h (2 Bft) SW 225 0,00 min 44 W/m 13,3 C 18,4 km/h (3 Bft)
_ Min-Zeit 00:00 00:00 00:00 - 00:00 - - - - 00:00 00:00
Minimum _ 13,9 C 59 % 1023,4 hPa - 0,2 km/h (0 Bft) - - - - 13,9 C 1,6 km/h (1 Bft)
_ Max-Zeit 00:00 00:00 00:00 00:00 00:00 - - 00:00 00:00 00:00 00:00
Maximum _ 13,9 C 59 % 1023,4 hPa 0,0 l/m 0,2 km/h
N (0 Bft)
- - 0,00 min 0 W/m 13,9 C 1,6 km/h
SO (1 Bft)
Durchschnitt _ 13,9 C 59 % 1023,4 hPa #341,2 l/m 0,2 km/h (0 Bft) N - #12:00 h 0 W/m 13,9 C 1,6 km/h (1 Bft)